• Join FlightAware (Why Join?)
  • Login
  • US Flag GB Flag 
18:38 EDT


 

Airport Tracker/Info


-or-


 

Live Flight TrackerFlight Track Log ✈ AVN31 ✈ 24-Oct-2013 ✈ YMML / MEL - NVVV / VLI

Flight Track Log - Related Links

Times and Time Zones

All times are in EDT time to prevent confusion due to time zone crossing. See the AVN31 flight status page for this flight to view local times or setup timezone preferences in your user account.

Time Position Orientation Groundspeed Altitude Reporting Facility
EDT Latitude Longitude Course Direction KTS MPH feet Rate Location/Type
06:54 -37.6298 144.8305 29° Northeast 165 190 1,700  Level Aus ATC (RADAR)
06:54 -37.6290 144.8310 352° North 171 197 1,500 1,320 Descending FlightAware
06:54 -37.5993 144.8249 352° North 191 220 2,500 1,200 Climbing Aus ATC (RADAR)
06:54 -37.5980 144.8250 351° North 213 245 2,200 1,500 Descending FlightAware
06:55 -37.5520 144.8460 27° Northeast 253 291 3,700 2,340 Climbing FlightAware
06:55 -37.5483 144.8480 351° North 242 278 4,100 2,340 Climbing Aus ATC (RADAR)
06:56 -37.5260 144.8625 27° Northeast 263 303 4,600 1,080 Climbing Aus ATC (RADAR)
06:56 -37.5180 144.8680 27° Northeast 280 322 4,600 2,700 Level FlightAware
06:56 -37.4851 144.8875 27° Northeast 280 322 6,200 2,580 Climbing Aus ATC (RADAR)
06:56 -37.4820 144.8890 27° Northeast 285 328 5,900 2,400 Descending FlightAware
06:57 -37.4374 144.9191 27° Northeast 293 337 7,800 2,460 Climbing Aus ATC (RADAR)
06:57 -37.4310 144.9280 27° Northeast 301 346 7,800 2,880 Level FlightAware
06:57 -37.4154 144.9531 27° Northeast 304 350 9,000 2,760 Climbing Aus ATC (RADAR)
06:58 -37.3970 144.9860 27° Northeast 310 357 9,600 2,400 Climbing FlightAware
06:58 -37.3867 145.0045 27° Northeast 310 357 10,400 1,500 Climbing Aus ATC (RADAR)
06:58 -37.3620 145.0470 27° Northeast 352 405 10,600 1,020 Climbing FlightAware
06:58 -37.3498 145.0691 27° Northeast 346 398 11,100 1,980 Climbing Aus ATC (RADAR)
06:59 -37.3320 145.1000 55° Northeast 372 428 11,600 2,880 Climbing FlightAware
06:59 -37.3249 145.1136 27° Northeast 370 426 12,300 3,240 Climbing Aus ATC (RADAR)
06:59 -37.2950 145.1671 55° Northeast 377 434 13,600 2,100 Climbing Aus ATC (RADAR)
06:59 -37.2870 145.1810 55° Northeast 387 445 13,600 2,520 Level FlightAware
07:00 -37.2475 145.2509 55° Northeast 396 456 15,500 2,580 Climbing Aus ATC (RADAR)
07:00 -37.2450 145.2550 54° Northeast 402 463 15,400 2,880 Descending FlightAware
07:00 -37.2204 145.2982 54° Northeast 402 463 16,700 2,820 Climbing Aus ATC (RADAR)
07:01 -37.2070 145.3220 54° Northeast 409 471 17,000 2,700 Climbing FlightAware
07:01 -37.1814 145.3663 54° Northeast 413 475 18,300 2,520 Climbing Aus ATC (RADAR)
07:01 -37.1680 145.3910 54° Northeast 421 484 18,500 2,520 Climbing FlightAware
07:02 -37.1362 145.4452 54° Northeast 420 483 20,000 2,520 Climbing Aus ATC (RADAR)
07:02 -37.1160 145.4810 54° Northeast 429 494 20,400 2,220 Climbing FlightAware
07:02 -37.0956 145.5160 54° Northeast 431 496 21,300 2,040 Climbing Aus ATC (RADAR)
07:03 -37.0750 145.5530 54° Northeast 442 509 21,600 2,040 Climbing FlightAware
07:03 -37.0537 145.5884 54° Northeast 442 509 22,500 1,920 Climbing Aus ATC (RADAR)
07:03 -37.0210 145.6460 54° Northeast 455 524 23,100 1,980 Climbing FlightAware
07:03 -37.0171 145.6521 54° Northeast 450 518 23,500 2,700 Climbing Aus ATC (RADAR)
07:04 -36.9799 145.7166 54° Northeast 458 527 24,500 1,440 Climbing Aus ATC (RADAR)
07:04 -36.9680 145.7380 54° Northeast 464 534 24,500 1,860 Level FlightAware
07:04 -36.9358 145.7929 54° Northeast 465 535 25,600 1,800 Climbing Aus ATC (RADAR)
07:05 -36.9210 145.8190 54° Northeast 472 543 25,600 1,560 Level FlightAware
07:05 -36.8780 145.8929 54° Northeast 476 548 26,800 1,620 Climbing Aus ATC (RADAR)
07:05 -36.8780 145.8930 54° Northeast 479 551 26,500 1,680 Descending FlightAware
07:06 -36.8452 145.9490 54° Northeast 480 552 27,500 1,620 Climbing Aus ATC (RADAR)
07:06 -36.8160 146.0000 54° Northeast 489 563 27,800 1,560 Climbing FlightAware
07:06 -36.8051 146.0172 54° Northeast 487 560 28,300 1,260 Climbing Aus ATC (RADAR)
07:07 -36.7610 146.0950 54° Northeast 496 571 28,700 1,320 Climbing FlightAware
07:07 -36.7513 146.1090 54° Northeast 494 568 29,200 1,740 Climbing Aus ATC (RADAR)
07:07 -36.7170 146.1673 54° Northeast 499 574 29,600 1,080 Climbing Aus ATC (RADAR)
07:08 -36.6686 146.2503 54° Northeast 507 583 30,300 720 Climbing Aus ATC (RADAR)
07:08 -36.6620 146.2630 54° Northeast 514 592 30,100 1,200 Descending FlightAware
07:08 -36.6120 146.3458 54° Northeast 516 594 31,100 1,320 Climbing Aus ATC (RADAR)
07:09 -36.5730 146.4140 53° Northeast 519 597 31,500 1,500 Climbing FlightAware
07:09 -36.5628 146.4306 54° Northeast 518 596 32,000 2,040 Climbing Aus ATC (RADAR)
07:10 -36.5126 146.5138 53° Northeast 516 594 32,900 1,020 Climbing Aus ATC (RADAR)
07:10 -36.5080 146.5250 53° Northeast 517 595 32,700 1,200 Descending FlightAware
07:10 -36.4563 146.6097 53° Northeast 515 593 33,700 1,260 Climbing Aus ATC (RADAR)
07:10 -36.4540 146.6160 53° Northeast 520 598 33,500 1,200 Descending FlightAware
07:11 -36.4209 146.6701 53° Northeast 518 596 34,200 1,080 Climbing Aus ATC (RADAR)
07:11 -36.3850 146.7300 53° Northeast 521 600 34,400 1,200 Climbing FlightAware
07:11 -36.3705 146.7537 53° Northeast 519 597 34,900 1,500 Climbing Aus ATC (RADAR)
07:12 -36.3450 146.7980 53° Northeast 514 592 35,300 2,100 Climbing FlightAware
07:12 -36.3145 146.8479 53° Northeast 508 585 36,300 1,680 Climbing Aus ATC (RADAR)
07:12 -36.2840 146.9010 53° Northeast 504 580 36,400 1,200 Climbing FlightAware
07:12 -36.2731 146.9176 53° Northeast 502 578 36,900 1,320 Climbing Aus ATC (RADAR)
07:13 -36.2240 146.9979 53° Northeast 501 577 37,300 120 Climbing Aus ATC (RADAR)
07:13 -36.2250 146.9990 53° Northeast 506 582 37,000 -600 Descending FlightAware
07:14 -36.1800 147.0740 53° Northeast 507 583 37,000 360 Level FlightAware
07:14 -36.1612 147.1026 53° Northeast 503 579 37,300  Climbing Aus ATC (RADAR)
07:14 -36.1260 147.1650 53° Northeast 508 585 37,000  Descending FlightAware
07:14 -36.1195 147.1728 53° Northeast 505 581 37,300 360 Climbing Aus ATC (RADAR)
07:15 -36.0566 147.2782 53° Northeast 507 583 37,300 -420 Level Aus ATC (RADAR)
07:15 -36.0580 147.2780 53° Northeast 510 587 37,000  Descending FlightAware
07:16 -36.0140 147.3478 53° Northeast 508 585 37,300  Climbing Aus ATC (RADAR)
07:16 -36.0110 147.3540 53° Northeast 511 588 37,000 -600 Descending FlightAware
07:16 -35.9710 147.4200 53° Northeast 511 588 37,000 540 Level FlightAware
07:16 -35.9645 147.4292 53° Northeast 506 582 37,300 420 Climbing Aus ATC (RADAR)
07:17 -35.9150 147.5111 53° Northeast 507 583 37,300  Level Aus ATC (RADAR)
07:17 -35.8727 147.5811 53° Northeast 509 586 37,300 -540 Level Aus ATC (RADAR)
07:17 -35.8680 147.5900 53° Northeast 514 592 37,000  Descending FlightAware
07:18 -35.8226 147.6633 53° Northeast 511 588 37,300  Climbing Aus ATC (RADAR)
07:18 -35.8110 147.6830 53° Northeast 515 593 37,000  Descending FlightAware
07:18 -35.7798 147.7330 53° Northeast 510 587 37,300  Climbing Aus ATC (RADAR)
07:19 -35.7550 147.7750 53° Northeast 514 592 37,000  Descending FlightAware
07:19 -35.7225 147.8265 53° Northeast 512 589 37,300  Climbing Aus ATC (RADAR)
07:19 -35.6950 147.8710 53° Northeast 515 593 37,000  Descending FlightAware
07:20 -35.6722 147.9079 53° Northeast 510 587 37,300  Climbing Aus ATC (RADAR)
07:20 -35.6340 147.9710 53° Northeast 519 597 37,000  Descending FlightAware
07:20 -35.5997 148.0247 53° Northeast 514 592 37,300 360 Climbing Aus ATC (RADAR)
07:21 -35.5637 148.0835 53° Northeast 514 592 37,300 -720 Level Aus ATC (RADAR)
07:21 -35.5610 148.0890 54° Northeast 519 597 37,000  Descending FlightAware
07:21 -35.5143 148.1667 54° Northeast 514 592 37,300  Climbing Aus ATC (RADAR)
07:22 -35.5030 148.1930 54° Northeast 526 605 37,000  Descending FlightAware
07:22 -35.4645 148.2695 54° Northeast 520 598 37,300  Climbing Aus ATC (RADAR)
07:22 -35.4430 148.3130 54° Northeast 526 605 37,000 -180 Descending FlightAware
07:23 -35.4201 148.3578 54° Northeast 517 595 37,200  Climbing Aus ATC (RADAR)
07:23 -35.4171 148.3652 54° Northeast 527 606 37,000  Descending FlightAware ADS-B
07:23 -35.3820 148.4340 54° Northeast 520 598 37,200  Climbing Aus ATC (RADAR)
07:24 -35.3500 148.4991 58° Northeast 527 606 37,000 -240 Descending FlightAware ADS-B
07:24 -35.3089 148.5803 58° Northeast 527 606 37,000  Level FlightAware ADS-B
07:25 -35.2740 148.6490 58° Northeast 526 605 37,000  Level FlightAware ADS-B
07:25 -35.2347 148.7260 58° Northeast 524 603 37,000  Level FlightAware ADS-B
07:26 -35.1880 148.8175 58° Northeast 525 604 37,000  Level FlightAware ADS-B
07:26 -35.1488 148.8946 58° Northeast 524 603 37,000  Level FlightAware ADS-B
07:27 -35.0950 149.0000 58° Northeast 519 597 37,000 120 Level FlightAware
07:27 -35.0606 149.0588 58° Northeast 512 589 37,200  Climbing Aus ATC (RADAR)
07:28 -35.0230 149.1240 55° Northeast 517 595 37,000 -180 Descending FlightAware ADS-B
07:28 -34.9661 149.2202 54° Northeast 518 596 37,000  Level FlightAware ADS-B
07:29 -34.9247 149.2905 54° Northeast 520 598 37,000  Level FlightAware ADS-B
07:29 -34.9085 149.3181 54° Northeast 520 598 37,000  Level FlightAware ADS-B
07:30 -34.8633 149.3944 54° Northeast 518 596 37,000 120 Level FlightAware ADS-B
07:30 -34.8096 149.4846 54° Northeast 508 585 37,200  Climbing Aus ATC (RADAR)
07:30 -34.8085 149.4871 54° Northeast 515 593 37,000 -420 Descending FlightAware ADS-B
07:31 -34.7664 149.5580 54° Northeast 515 593 37,000  Level FlightAware ADS-B
07:32 -34.7078 149.6565 54° Northeast 515 593 37,000  Level FlightAware ADS-B
07:32 -34.6677 149.7239 54° Northeast 514 592 37,000  Level FlightAware ADS-B
07:32 -34.6549 149.7454 54° Northeast 511 588 37,000  Level FlightAware ADS-B (YRAY)
07:32 -34.6291 149.7886 54° Northeast 514 592 37,000  Level FlightAware ADS-B
07:33 -34.6137 149.8143 54° Northeast 511 588 37,000  Level FlightAware ADS-B (YRAY)
07:33 -34.5749 149.8792 54° Northeast 516 594 37,000  Level FlightAware ADS-B
07:34 -34.5398 149.9375 54° Northeast 516 594 37,000  Level FlightAware ADS-B
07:34 -34.4837 150.0309 54° Northeast 516 594 37,000  Level FlightAware ADS-B
07:35 -34.4420 150.1002 54° Northeast 516 594 37,000  Level FlightAware ADS-B
07:35 -34.3981 150.1728 54° Northeast 518 596 37,000  Level FlightAware ADS-B
07:36 -34.3477 150.2561 54° Northeast 519 597 37,000  Level FlightAware ADS-B
07:36 -34.3103 150.3178 54° Northeast 520 598 37,000  Level FlightAware ADS-B
07:37 -34.2620 150.3974 54° Northeast 522 601 37,000  Level FlightAware ADS-B
07:37 -34.2181 150.4697 54° Northeast 522 601 37,000  Level FlightAware ADS-B
07:38 -34.1724 150.5448 54° Northeast 522 601 37,000  Level FlightAware ADS-B
07:38 -34.1239 150.6241 54° Northeast 524 603 37,000  Level FlightAware ADS-B
07:39 -34.0745 150.7050 54° Northeast 524 603 37,000  Level FlightAware ADS-B
07:39 -34.0307 150.7761 53° Northeast 523 602 37,000  Level FlightAware ADS-B
07:40 -33.9854 150.8500 54° Northeast 522 601 37,000  Level FlightAware ADS-B
07:41 -33.9398 150.9242 53° Northeast 518 596 37,000  Level FlightAware ADS-B
07:41 -33.8963 150.9946 53° Northeast 518 596 37,000  Level FlightAware ADS-B (YRAY)
07:42 -33.8395 151.0863 53° Northeast 519 597 37,000  Level FlightAware ADS-B (YRAY)
07:42 -33.7941 151.1589 53° Northeast 519 597 37,000  Level FlightAware ADS-B
07:43 -33.7481 151.2330 53° Northeast 519 597 37,000  Level FlightAware ADS-B
07:43 -33.7044 151.3033 53° Northeast 519 597 37,000  Level FlightAware ADS-B
07:44 -33.6556 151.3814 53° Northeast 517 595 37,000  Level FlightAware ADS-B
07:44 -33.6091 151.4556 53° Northeast 517 595 37,000  Level FlightAware ADS-B
07:45 -33.5581 151.5368 53° Northeast 518 596 37,000  Level FlightAware ADS-B
07:46 -33.5074 151.6174 53° Northeast 518 596 37,000  Level FlightAware ADS-B
07:46 -33.4722 151.6732 53° Northeast 519 597 37,000  Level FlightAware ADS-B
07:47 -33.4019 151.7849 53° Northeast 517 595 37,000  Level FlightAware ADS-B
07:47 -33.3573 151.8554 53° Northeast 516 594 37,000  Level FlightAware ADS-B
07:48 -33.3161 151.9207 53° Northeast 514 592 37,000  Level FlightAware ADS-B
07:48 -33.2674 151.9977 53° Northeast 514 592 37,000  Level FlightAware ADS-B
07:49 -33.2167 152.0774 53° Northeast 515 593 37,000  Level FlightAware ADS-B
07:49 -33.1710 152.1490 53° Northeast 515 593 37,000  Level FlightAware ADS-B
07:50 -33.1280 152.2162 53° Northeast 514 592 37,000  Level FlightAware ADS-B
07:51 -33.0753 152.2985 53° Northeast 514 592 37,000  Level FlightAware ADS-B
07:51 -33.0219 152.3817 53° Northeast 516 594 37,000 180 Level FlightAware ADS-B
07:52 -32.9715 152.4607 53° Northeast 513 590 37,200  Climbing Aus ATC (RADAR)
07:52 -32.9520 152.4900 53° Northeast 510 587 37,000  Descending FlightAware
07:52 -32.9135 152.5509 53° Northeast 515 593 37,200  Climbing Aus ATC (RADAR)
07:53 -32.9010 152.5690 53° Northeast 513 590 37,000  Descending FlightAware
07:53 -32.8781 152.6050 53° Northeast 504 580 37,200  Climbing Aus ATC (RADAR)
07:53 -32.8430 152.6600 53° Northeast 513 590 37,000  Descending FlightAware
07:53 -32.8336 152.6748 53° Northeast 516 594 37,200  Climbing Aus ATC (RADAR)
07:54 -32.7850 152.7490 53° Northeast 513 590 37,000  Descending FlightAware
07:54 -32.7752 152.7647 53° Northeast 514 592 37,200  Climbing Aus ATC (RADAR)
07:55 -32.7330 152.8290 52° Northeast 514 592 37,000  Descending FlightAware
07:55 -32.7240 152.8434 53° Northeast 516 594 37,200 300 Climbing Aus ATC (RADAR)
07:55 -32.6801 152.9111 52° Northeast 519 597 37,200 -300 Level Aus ATC (RADAR)
07:55 -32.6670 152.9300 52° Northeast 513 590 37,000 -240 Descending FlightAware
07:56 -32.6020 153.0310 52° Northeast 512 589 37,000 240 Level FlightAware
07:56 -32.5924 153.0451 52° Northeast 513 590 37,200 240 Climbing Aus ATC (RADAR)
07:56 -32.5631 153.0901 52° Northeast 515 593 37,100 -360 Descending Aus ATC (RADAR)
07:57 -32.5440 153.1190 52° Northeast 513 590 37,000 120 Descending FlightAware
07:57 -32.5118 153.1686 52° Northeast 517 595 37,200  Climbing Aus ATC (RADAR)
07:57 -32.4730 153.2270 52° Northeast 518 596 37,000  Descending FlightAware
07:58 -32.4530 153.2579 52° Northeast 516 594 37,200 240 Climbing Aus ATC (RADAR)
07:58 -32.4029 153.3332 52° Northeast 502 578 37,200 -360 Level Aus ATC (RADAR)
07:58 -32.4050 153.3300 52° Northeast 517 595 37,000  Descending FlightAware
07:59 -32.3577 153.4026 52° Northeast 516 594 37,200  Climbing Aus ATC (RADAR)
07:59 -32.3390 153.4300 52° Northeast 516 594 37,000  Descending FlightAware
07:59 -32.2991 153.4912 52° Northeast 514 592 37,200  Climbing Aus ATC (RADAR)
08:00 -32.2970 153.4940 52° Northeast 516 594 37,000 -240 Descending FlightAware
08:00 -32.2240 153.6040 52° Northeast 515 593 37,000 180 Level FlightAware
08:01 -32.2038 153.6355 52° Northeast 515 593 37,200  Climbing Aus ATC (RADAR)
08:01 -32.1550 153.7080 52° Northeast 515 593 37,000 -120 Descending FlightAware
08:02 -32.1094 153.7764 52° Northeast 498 573 37,100  Climbing Aus ATC (RADAR)
08:02 -32.1220 153.7580 52° Northeast 514 592 37,000 -120 Descending FlightAware
08:02 -32.0340 153.8890 52° Northeast 512 589 37,000 60 Level FlightAware
08:03 -32.0130 153.9212 52° Northeast 509 586 37,100  Climbing Aus ATC (RADAR)
08:03 -31.9900 153.9540 52° Northeast 509 586 37,000  Descending FlightAware
08:04 -31.9182 154.0624 52° Northeast 507 583 37,100  Climbing Aus ATC (RADAR)
08:04 -31.9130 154.0700 52° Northeast 508 585 37,000 -180 Descending FlightAware
08:04 -31.8600 154.1480 52° Northeast 507 583 37,000 180 Level FlightAware
08:05 -31.8311 154.1922 52° Northeast 507 583 37,200  Climbing Aus ATC (RADAR)
08:05 -31.8090 154.2240 52° Northeast 508 585 37,000 -240 Descending FlightAware
08:06 -31.7500 154.3120 52° Northeast 507 583 37,000 240 Level FlightAware
08:06 -31.7290 154.3431 52° Northeast 508 585 37,200  Climbing Aus ATC (RADAR)
08:07 -31.6840 154.4090 52° Northeast 507 583 37,000  Descending FlightAware
08:07 -31.6343 154.4828 52° Northeast 506 582 37,200  Climbing Aus ATC (RADAR)
08:07 -31.6090 154.5200 52° Northeast 506 582 37,000  Descending FlightAware
08:08 -31.5394 154.6222 52° Northeast 504 580 37,200  Climbing Aus ATC (RADAR)
08:08 -31.5450 154.6130 51° Northeast 507 583 37,000 -300 Descending FlightAware
08:09 -31.4840 154.7040 51° Northeast 507 583 37,000 180 Level FlightAware
08:09 -31.4445 154.7613 51° Northeast 503 579 37,200  Climbing Aus ATC (RADAR)
08:09 -31.4320 154.7790 51° Northeast 508 585 37,000 -240 Descending FlightAware
08:10 -31.3690 154.8710 51° Northeast 512 589 37,000 180 Level FlightAware
08:10 -31.3489 154.9010 51° Northeast 506 582 37,200  Climbing Aus ATC (RADAR)
08:10 -31.3310 154.9260 51° Northeast 512 589 37,000 -240 Descending FlightAware
08:11 -31.2700 155.0170 51° Northeast 512 589 37,000 180 Level FlightAware
08:11 -31.2453 155.0518 51° Northeast 508 585 37,200  Climbing Aus ATC (RADAR)
08:12 -31.2010 155.1160 51° Northeast 511 588 37,000  Descending FlightAware
08:13 -31.1401 155.2006 51° Northeast 493 567 37,200  Climbing Aus ATC (RADAR)
08:13 -31.1400 155.2050 51° Northeast 511 588 37,000 -240 Descending FlightAware
08:13 -31.0930 155.2720 51° Northeast 511 588 37,000 240 Level FlightAware
08:14 -31.0536 155.3291 51° Northeast 504 580 37,200  Climbing Aus ATC (RADAR)
08:14 -31.0320 155.3600 51° Northeast 511 588 37,000 -240 Descending FlightAware
08:15 -31.0020 155.4030 51° Northeast 511 588 37,000 420 Level FlightAware
08:15 -30.9511 155.4766 51° Northeast 501 577 37,200  Climbing Aus ATC (RADAR)
08:15 -30.9560 155.4690 51° Northeast 511 588 37,000  Descending FlightAware
08:16 -30.8559 155.6129 51° Northeast 500 575 37,200  Climbing Aus ATC (RADAR)
08:16 -30.8950 155.5560 51° Northeast 511 588 37,000 -300 Descending FlightAware
08:16 -30.8640 155.6020 51° Northeast 511 588 37,000 240 Level FlightAware
08:17 -30.7677 155.7386 51° Northeast 501 577 37,200  Climbing Aus ATC (RADAR)
08:17 -30.8030 155.6890 51° Northeast 511 588 37,000 -240 Descending FlightAware
08:18 -30.7580 155.7540 51° Northeast 511 588 37,000 240 Level FlightAware
08:18 -30.6648 155.8853 51° Northeast 502 578 37,200  Climbing Aus ATC (RADAR)
08:19 -30.6970 155.8420 51° Northeast 511 588 37,000  Descending FlightAware
08:19 -30.5761 156.0110 51° Northeast 503 579 37,200  Climbing Aus ATC (RADAR)
08:19 -30.6510 155.9070 51° Northeast 511 588 37,000 -240 Descending FlightAware
08:20 -30.6060 155.9720 51° Northeast 511 588 37,000 240 Level FlightAware
08:20 -30.4806 156.1458 51° Northeast 499 574 37,200  Climbing Aus ATC (RADAR)
08:20 -30.5600 156.0380 51° Northeast 511 588 37,000 -240 Descending FlightAware
08:21 -30.5150 156.1030 51° Northeast 511 588 37,000 240 Level FlightAware
08:21 -30.3779 156.2911 51° Northeast 498 573 37,200 60 Climbing Aus ATC (RADAR)
08:22 -30.2822 156.4257 51° Northeast 499 574 37,100 -180 Descending Aus ATC (RADAR)
08:22 -30.2820 156.4250 51° Northeast 503 579 37,000 -180 Descending FlightAware
08:23 -30.2310 156.4970 51° Northeast 505 581 37,000 60 Level FlightAware
08:23 -30.1930 156.5502 51° Northeast 501 577 37,100  Climbing Aus ATC (RADAR)
08:24 -30.1820 156.5640 50° Northeast 505 581 37,000 -120 Descending FlightAware
08:24 -30.1350 156.6290 50° Northeast 505 581 37,000 60 Level FlightAware
08:24 -30.0888 156.6955 50° Northeast 502 578 37,100  Climbing Aus ATC (RADAR)
08:25 -30.0740 156.7130 50° Northeast 505 581 37,000  Descending FlightAware
08:26 -29.9916 156.8307 50° Northeast 503 579 37,100 60 Climbing Aus ATC (RADAR)
08:27 -30.3180 156.3760 50° Northeast 37,000  Descending FlightAware
08:27 -29.9020 156.9549 50° Northeast 502 578 37,100 60 Climbing Aus ATC (RADAR)
08:28 -29.7969 157.0993 50° Northeast 502 578 37,100  Level Aus ATC (RADAR)
08:29 -29.7069 157.2233 50° Northeast 502 578 37,100  Level Aus ATC (RADAR)
08:30 -29.6129 157.3550 51° Northeast 493 567 37,100  Level Aus ATC (RADAR)
08:31 -29.5079 157.4985 50° Northeast 497 572 37,100  Level Aus ATC (RADAR)
08:32 -29.4169 157.6218 50° Northeast 503 579 37,100  Level Aus ATC (RADAR)
08:33 -29.3118 157.7654 50° Northeast 502 578 37,100  Level Aus ATC (RADAR)
08:34 -29.2208 157.8882 50° Northeast 502 578 37,100  Level Aus ATC (RADAR)
08:35 -29.1249 158.0197 50° Northeast 496 571 37,100  Level Aus ATC (RADAR)
08:36 -29.0172 158.1618 49° Northeast 500 575 37,100  Level Aus ATC (RADAR)
08:37 -28.9697 158.2219 48° Northeast 502 578 37,100 -60 Level Aus ATC (RADAR)
08:42 -28.4337 158.9355 47° Northeast 37,000 -60 Descending Aus ATC (Calculated)
08:44 -28.2899 159.1250 49° Northeast  Level FlightAware Approximate
08:45 -28.2026 159.2395 49° Northeast  Level FlightAware Approximate
08:45 -28.1683 159.2621 47° Northeast 37,000  Level Aus ATC (Calculated)
08:47 -28.3291 159.0930 223° Southwest  Level FlightAware Approximate
08:47 -28.0211 159.4420 47° Northeast 37,000  Level Aus ATC (Calculated)
08:49 -28.1899 159.2465 226° Southwest  Level FlightAware Approximate
08:50 -28.2827 159.1387 226° Southwest  Level FlightAware Approximate
08:50 -27.7399 159.7837 47° Northeast 37,000  Level Aus ATC (Calculated)
08:51 -27.6548 159.8865 47° Northeast 37,000  Level Aus ATC (Calculated)
08:52 -27.5613 159.9517 47° Northeast  Level Estimated
08:52 -27.5310 160.0357 47° Northeast 37,000  Level Aus ATC (Calculated)
08:53 -27.4853 160.0906 47° Northeast  Level FlightAware Approximate
08:53 -27.4522 160.1303 47° Northeast 37,000  Level Aus ATC (Calculated)
08:54 -27.3885 160.2067 47° Northeast  Level FlightAware Approximate
08:55 -27.3081 160.3029 47° Northeast  Level FlightAware Approximate
08:56 -27.2170 160.4116 47° Northeast  Level FlightAware Approximate
08:56 -27.1906 160.4431 47° Northeast 37,000  Level Aus ATC (Calculated)
08:56 -27.1906 160.4431 47° Northeast 37,000  Level Aus ATC (Calculated)
08:57 -27.0538 160.6057 47° Northeast 37,000  Level Aus ATC (Calculated)
08:58 -27.0614 160.5967 47° Northeast  Level FlightAware Approximate
08:59 -26.9336 160.7482 47° Northeast  Level FlightAware Approximate
08:59 -26.8611 160.8338 46° Northeast 37,000  Level Aus ATC (Calculated)
09:00 -26.8421 160.8562 47° Northeast  Level FlightAware Approximate
09:01 -26.7407 160.9758 46° Northeast  Level FlightAware Approximate
09:01 -26.6862 161.0398 46° Northeast 37,000  Level Aus ATC (Calculated)
09:02 -26.6490 161.0835 46° Northeast  Level FlightAware Approximate
09:03 -26.5655 161.1814 46° Northeast  Level FlightAware Approximate
09:03 -26.5803 161.1640 46° Northeast 37,000  Level Aus ATC (Calculated)
09:04 -26.4886 161.2713 46° Northeast  Level FlightAware Approximate
09:05 -26.3968 161.3785 46° Northeast  Level FlightAware Approximate
09:05 -26.3816 161.3962 46° Northeast 37,000  Level Aus ATC (Calculated)
09:06 -26.2897 161.5032 46° Northeast  Level FlightAware Approximate
09:07 -26.1977 161.6100 46° Northeast  Level FlightAware Approximate
09:08 -26.1056 161.7166 46° Northeast  Level FlightAware Approximate
09:09 -26.0134 161.8231 46° Northeast  Level FlightAware Approximate
09:10 -25.9212 161.9294 46° Northeast  Level FlightAware Approximate
09:11 -25.8288 162.0356 46° Northeast  Level FlightAware Approximate
09:12 -25.7365 162.1415 46° Northeast  Level FlightAware Approximate
09:13 -25.6440 162.2473 46° Northeast  Level FlightAware Approximate
09:14 -25.5514 162.3530 46° Northeast  Level FlightAware Approximate
09:15 -25.4588 162.4585 46° Northeast  Level FlightAware Approximate
09:15 -25.3759 162.5527 46° Northeast 37,000  Level Aus ATC (Calculated)
09:16 -25.2831 162.6579 46° Northeast  Level FlightAware Approximate
09:17 -25.1903 162.7629 46° Northeast  Level FlightAware Approximate
09:18 -25.0974 162.8677 46° Northeast  Level FlightAware Approximate
09:19 -25.0044 162.9724 46° Northeast  Level FlightAware Approximate
09:20 -24.9113 163.0770 46° Northeast  Level FlightAware Approximate
09:21 -25.0044 162.9724 226° Southwest  Level FlightAware Approximate
09:22 -24.9113 163.0770 46° Northeast  Level FlightAware Approximate
09:23 -25.0044 162.9724 226° Southwest  Level FlightAware Approximate
09:24 -24.9113 163.0770 46° Northeast  Level FlightAware Approximate
09:25 -24.9482 163.0354 45° Northeast  Level FlightAware Approximate
09:26 -24.8548 163.1396 45° Northeast  Level FlightAware Approximate
09:27 -24.7614 163.2435 45° Northeast  Level FlightAware Approximate
09:28 -24.6679 163.3474 45° Northeast  Level FlightAware Approximate
09:29 -24.5743 163.4511 45° Northeast  Level FlightAware Approximate
09:30 -24.4806 163.5546 45° Northeast  Level FlightAware Approximate
09:31 -24.3869 163.6580 45° Northeast  Level FlightAware Approximate
09:32 -24.2931 163.7612 45° Northeast  Level FlightAware Approximate
09:33 -24.1993 163.8643 45° Northeast  Level FlightAware Approximate
09:34 -24.1053 163.9672 45° Northeast  Level FlightAware Approximate
09:35 -24.0113 164.0700 45° Northeast  Level FlightAware Approximate
09:35 -23.5570 164.5630 45° Northeast 480 552 37,000  Level FlightAware
09:36 -23.9173 164.1726 45° Northeast  Level FlightAware Approximate
09:36 -23.4880 164.6380 45° Northeast 481 554 37,000  Level FlightAware
09:36 -23.3980 164.7350 45° Northeast 483 556 37,000  Level FlightAware
09:37 -23.3150 164.8250 45° Northeast 485 558 37,000  Level FlightAware
09:38 -23.2570 164.8860 44° Northeast 485 558 37,000  Level FlightAware
09:39 -23.1930 164.9550 45° Northeast 485 558 37,000  Level FlightAware
09:39 -23.1170 165.0370 45° Northeast 484 557 37,000  Level FlightAware
09:40 -23.0590 165.0990 45° Northeast 480 552 37,000  Level FlightAware
09:41 -22.9900 165.1730 45° Northeast 476 548 37,000  Level FlightAware
09:41 -22.9300 165.2360 44° Northeast 476 548 37,000  Level FlightAware
09:42 -22.8680 165.3020 44° Northeast 476 548 37,000  Level FlightAware
09:43 -22.7970 165.3780 45° Northeast 476 548 37,000  Level FlightAware
09:43 -22.7520 165.4260 45° Northeast 477 549 37,000  Level FlightAware
09:44 -22.6940 165.4880 45° Northeast 477 549 37,000  Level FlightAware
09:45 -22.6220 165.5640 44° Northeast 478 550 37,000  Level FlightAware
09:45 -22.5670 165.6210 44° Northeast 476 548 37,000  Level FlightAware
09:46 -22.5140 165.6780 45° Northeast 476 548 37,000  Level FlightAware
09:46 -22.4470 165.7480 44° Northeast 476 548 37,000  Level FlightAware
09:47 -22.3820 165.8170 44° Northeast 478 550 37,000  Level FlightAware
09:48 -22.3260 165.8760 44° Northeast 479 551 37,000  Level FlightAware
09:48 -22.2680 165.9370 44° Northeast 479 551 37,000  Level FlightAware
09:49 -22.2050 166.0020 44° Northeast 478 550 37,000  Level FlightAware
09:50 -22.1340 166.0770 44° Northeast 476 548 37,000  Level FlightAware
09:51 -22.0520 166.1630 44° Northeast 474 545 37,000  Level FlightAware
09:51 -21.9830 166.2200 37° Northeast 473 544 37,000  Level FlightAware
09:52 -21.8960 166.2650 26° Northeast 473 544 37,000  Level FlightAware
09:53 -21.8240 166.2990 24° Northeast 475 547 37,000  Level FlightAware
09:53 -21.7470 166.3360 24° Northeast 476 548 37,000  Level FlightAware
09:54 -21.6390 166.3870 24° Northeast 478 550 37,000  Level FlightAware
09:55 -21.5790 166.4160 24° Northeast 480 552 37,000  Level FlightAware
09:56 -21.4650 166.4700 24° Northeast 482 555 37,000  Level FlightAware
09:56 -21.3930 166.5040 24° Northeast 482 555 37,000  Level FlightAware
09:57 -21.3360 166.5320 25° Northeast 480 552 37,000  Level FlightAware
09:57 -21.2710 166.5630 24° Northeast 479 551 37,000  Level FlightAware
09:58 -21.1810 166.6050 24° Northeast 479 551 37,000  Level FlightAware
09:59 -21.0880 166.6500 24° Northeast 479 551 37,000  Level FlightAware
09:59 -21.0140 166.6840 23° Northeast 479 551 37,000  Level FlightAware
10:00 -20.9130 166.7320 24° Northeast 477 549 37,000  Level FlightAware
10:01 -20.8390 166.7670 24° Northeast 476 548 37,000  Level FlightAware
10:01 -20.7670 166.8010 24° Northeast 476 548 37,000  Level FlightAware
10:02 -20.6930 166.8360 24° Northeast 476 548 37,000  Level FlightAware
10:03 -20.6190 166.8710 24° Northeast 477 549 37,000  Level FlightAware
10:03 -20.5430 166.9070 24° Northeast 479 551 37,000  Level FlightAware
10:04 -20.4480 166.9510 23° Northeast 481 554 37,000  Level FlightAware
10:04 -20.3980 166.9750 24° Northeast 481 554 37,000  Level FlightAware
10:05 -20.3050 167.0170 23° Northeast 481 554 37,000  Level FlightAware
10:06 -20.2430 167.0450 23° Northeast 481 554 37,000  Level FlightAware
10:06 -20.1800 167.0730 23° Northeast 481 554 37,000  Level FlightAware
10:07 -20.0960 167.1110 23° Northeast 481 554 37,000  Level FlightAware
10:08 -20.0340 167.1390 23° Northeast 481 554 37,000  Level FlightAware
10:09 -19.9480 167.1780 23° Northeast 481 554 37,000  Level FlightAware
10:09 -19.8840 167.2070 23° Northeast 481 554 37,000  Level FlightAware
10:10 -19.8190 167.2360 23° Northeast 481 554 37,000  Level FlightAware
10:10 -19.7600 167.2630 23° Northeast 481 554 37,000  Level FlightAware
10:11 -19.6770 167.3000 23° Northeast 481 554 37,000  Level FlightAware
10:12 -19.5910 167.3390 23° Northeast 481 554 37,000  Level FlightAware
10:13 -19.5100 167.3760 23° Northeast 481 554 37,000  Level FlightAware
10:13 -19.4490 167.4030 23° Northeast 481 554 37,000  Level FlightAware
10:14 -19.3840 167.4320 23° Northeast 481 554 37,000  Level FlightAware
10:14 -19.3620 167.4420 23° Northeast 481 554 37,000  Level FlightAware
10:18 -18.9715 167.6312 25° Northeast  Level FlightAware Approximate
10:19 -18.8507 167.6895 25° Northeast  Level FlightAware Approximate
10:20 -18.7298 167.7478 25° Northeast  Level FlightAware Approximate
10:21 -18.6089 167.8059 25° Northeast  Level FlightAware Approximate
10:22 -18.4878 167.8632 24° Northeast  Level FlightAware Approximate
10:23 -18.3662 167.9195 24° Northeast  Level FlightAware Approximate
10:24 -18.2446 167.9758 24° Northeast  Level FlightAware Approximate
10:25 -18.1229 168.0319 24° Northeast  Level FlightAware Approximate
10:26 -18.0013 168.0880 24° Northeast  Level FlightAware Approximate
10:27 -17.8796 168.1440 24° Northeast  Level FlightAware Approximate
10:28 -17.7579 168.2000 24° Northeast  Level FlightAware Approximate
10:29 -17.6621 168.2439 24° Northeast  Level FlightAware Approximate
10:30 -17.6993 168.3198 24° Northeast  Level Estimated
10:31 -17.6993 168.3198 24° Northeast  Level Estimated
10:32 -17.6993 168.3198 24° Northeast  Level Estimated
10:33 -17.6993 168.3198 24° Northeast  Level Estimated
10:34 -17.6993 168.3198 24° Northeast  Level Estimated
10:35 -17.6993 168.3198 24° Northeast  Level Estimated
10:36 -17.6993 168.3198 24° Northeast  Level Estimated
10:37 -17.6993 168.3198 24° Northeast  Level Estimated
10:38 -17.6993 168.3198 24° Northeast  Level Estimated
10:39 -17.6993 168.3198 24° Northeast  Level Estimated
10:40 -17.6993 168.3198 24° Northeast  Level Estimated
10:41 -17.6993 168.3198 24° Northeast  Level Estimated
10:42 -17.6993 168.3198 24° Northeast  Level Estimated
10:43 -17.6993 168.3198 24° Northeast  Level Estimated
10:44 -17.6993 168.3198 24° Northeast  Level Estimated
10:45 -17.6993 168.3198 24° Northeast  Level Estimated
10:46 -17.6993 168.3198 24° Northeast  Level Estimated
10:47 -17.6993 168.3198 24° Northeast  Level Estimated
10:48 -17.6993 168.3198 24° Northeast  Level Estimated